Time;durP1;ratioP1;P1;durP2;ratioP2;P2;SDS_P1;SDS_P2;PMS_P1;PMS_P2;Temp;Humidity;BMP_temperature;BMP_pressure;BME280_temperature;BME280_humidity;BME280_pressure;Samples;Min_cycle;Max_cycle;Signal;HPM_P1;HPM_P2
2021/12/22 00:01:25;;;;;;;3.05;2.75;;;16.80;59.20;;;;;;4976972;28;20073;-27
2021/12/22 00:03:50;;;;;;;2.75;2.65;;;16.80;59.30;;;;;;4975930;28;20035;-23
2021/12/22 00:06:22;;;;;;;3.15;2.88;;;16.70;59.20;;;;;;4973827;28;20053;-26
2021/12/22 00:08:47;;;;;;;3.38;3.17;;;16.80;59.30;;;;;;4967526;28;20065;-29
2021/12/22 00:11:13;;;;;;;3.03;2.83;;;16.70;59.20;;;;;;4973383;28;20042;-28
2021/12/22 00:13:39;;;;;;;3.00;2.80;;;16.80;59.20;;;;;;4976201;28;20428;-26
2021/12/22 00:16:04;;;;;;;2.72;2.53;;;16.70;59.20;;;;;;4967857;28;20054;-35
2021/12/22 00:18:30;;;;;;;3.50;3.30;;;16.70;59.30;;;;;;4976372;28;20035;-30
2021/12/22 00:20:56;;;;;;;2.50;2.38;;;16.70;59.30;;;;;;4988035;28;20063;-28
2021/12/22 00:23:22;;;;;;;2.90;2.70;;;16.70;59.30;;;;;;4967420;28;20509;-30
2021/12/22 00:25:47;;;;;;;3.15;2.85;;;16.70;59.30;;;;;;4991987;28;20050;-30
2021/12/22 00:28:13;;;;;;;3.10;2.90;;;16.70;59.30;;;;;;4975199;28;20117;-26
2021/12/22 00:30:39;;;;;;;2.83;2.63;;;16.70;59.30;;;;;;4972597;28;20782;-28
2021/12/22 00:33:06;;;;;;;2.38;2.28;;;16.70;59.40;;;;;;4974561;28;20049;-29
2021/12/22 00:35:42;;;;;;;2.65;2.55;;;16.70;59.40;;;;;;4973721;28;20166;-23
2021/12/22 00:38:09;;;;;;;2.40;2.20;;;16.70;59.30;;;;;;4973354;28;20046;-30
2021/12/22 00:40:34;;;;;;;2.60;2.50;;;16.70;60.10;;;;;;4975685;28;20057;-26
2021/12/22 00:43:00;;;;;;;2.38;2.28;;;16.60;59.30;;;;;;4974923;28;20043;-26
2021/12/22 00:45:28;;;;;;;3.35;3.03;;;16.70;59.40;;;;;;4972627;28;20050;-31
2021/12/22 00:47:54;;;;;;;2.60;2.40;;;16.70;59.40;;;;;;4973041;28;20039;-28
2021/12/22 00:50:20;;;;;;;2.47;2.38;;;16.70;59.40;;;;;;4974229;28;20055;-27
2021/12/22 00:52:46;;;;;;;2.90;2.80;;;16.60;59.40;;;;;;4978903;28;20050;-25
2021/12/22 00:55:17;;;;;;;2.30;2.20;;;16.60;59.40;;;;;;4975342;28;20059;-25
2021/12/22 00:57:42;;;;;;;2.50;2.30;;;16.60;59.40;;;;;;4974048;28;20046;-24
2021/12/22 01:00:08;;;;;;;2.55;2.45;;;16.60;59.40;;;;;;4973626;28;20049;-23
2021/12/22 01:02:34;;;;;;;2.90;2.70;;;16.60;59.50;;;;;;4974861;28;20097;-26
2021/12/22 01:04:59;;;;;;;2.60;2.40;;;16.60;59.50;;;;;;4974616;28;20055;-36
2021/12/22 01:07:25;;;;;;;2.40;2.30;;;16.60;59.50;;;;;;4975062;28;20043;-38
2021/12/22 01:09:51;;;;;;;2.17;2.08;;;16.60;59.50;;;;;;4973230;28;20133;-28
2021/12/22 01:12:17;;;;;;;2.72;2.63;;;16.60;59.40;;;;;;4974069;28;20070;-26
2021/12/22 01:14:42;;;;;;;2.22;2.13;;;16.60;59.40;;;;;;4974709;28;20047;-28
2021/12/22 01:17:11;;;;;;;2.30;2.20;;;16.60;59.40;;;;;;4973995;28;20054;-39
2021/12/22 01:22:27;;;;;;;;;;;16.60;59.40;;;;;;4972821;28;20058;-32
2021/12/22 01:25:01;;;;;;;2.67;2.47;;;16.60;59.50;;;;;;4974642;28;19968;-31
2021/12/22 01:27:32;;;;;;;2.15;2.05;;;16.60;59.50;;;;;;4970282;28;20077;-30
2021/12/22 01:29:58;;;;;;;2.20;2.10;;;16.60;59.50;;;;;;4972629;28;20141;-28
2021/12/22 01:32:25;;;;;;;2.55;2.35;;;16.60;59.50;;;;;;4974683;28;20081;-24
2021/12/22 01:34:50;;;;;;;2.40;2.30;;;16.60;59.50;;;;;;4974000;28;20549;-23
2021/12/22 01:37:16;;;;;;;2.38;2.28;;;16.60;59.50;;;;;;4974077;28;20050;-27
2021/12/22 01:39:42;;;;;;;2.55;2.35;;;16.60;59.50;;;;;;4971165;28;20407;-30
2021/12/22 01:42:07;;;;;;;2.53;2.42;;;16.60;59.50;;;;;;4974963;28;20117;-30
2021/12/22 01:44:47;;;;;;;2.50;2.30;;;16.60;59.50;;;;;;4974186;28;20047;-24
2021/12/22 01:49:58;;;;;;;2.70;2.60;;;16.50;59.50;;;;;;4969875;28;20057;-26
2021/12/22 01:52:23;;;;;;;2.65;2.55;;;16.50;59.50;;;;;;4973963;28;20466;-29
2021/12/22 01:54:53;;;;;;;2.45;2.28;;;16.50;59.40;;;;;;4974600;28;20584;-31
2021/12/22 01:57:19;;;;;;;2.85;2.65;;;16.50;59.50;;;;;;4976355;28;20109;-30
2021/12/22 01:59:46;;;;;;;2.13;2.03;;;16.50;59.50;;;;;;4973583;28;20385;-27
2021/12/22 02:02:12;;;;;;;2.72;2.53;;;16.50;59.60;;;;;;4977675;28;20050;-24
2021/12/22 02:04:38;;;;;;;2.67;2.47;;;16.50;59.50;;;;;;4978515;28;20463;-25
2021/12/22 02:07:05;;;;;;;2.33;2.22;;;16.50;59.60;;;;;;4977638;28;20058;-32
2021/12/22 02:12:06;;;;;;;2.35;2.25;;;16.50;59.60;;;;;;4976914;28;20109;-30
2021/12/22 02:14:32;;;;;;;2.20;2.10;;;16.50;59.60;;;;;;4975387;28;20489;-25
2021/12/22 02:16:58;;;;;;;2.20;2.10;;;16.40;59.70;;;;;;4972125;28;20126;-37
2021/12/22 02:19:23;;;;;;;2.38;2.28;;;16.50;59.70;;;;;;4969906;28;20054;-29
2021/12/22 02:21:54;;;;;;;2.20;2.10;;;16.50;59.70;;;;;;4974928;28;20063;-28
2021/12/22 02:24:20;;;;;;;2.20;2.10;;;16.50;59.70;;;;;;4972879;28;20400;-29
2021/12/22 02:26:56;;;;;;;2.20;2.10;;;16.50;59.70;;;;;;4974437;28;20043;-25
2021/12/22 02:29:34;;;;;;;2.50;2.30;;;16.40;59.60;;;;;;4974883;28;20063;-29
2021/12/22 02:32:05;;;;;;;2.40;2.20;;;16.40;59.60;;;;;;4975247;28;20070;-27
2021/12/22 02:34:39;;;;;;;2.50;2.35;;;16.40;59.60;;;;;;4977216;28;20126;-29
2021/12/22 02:37:10;;;;;;;2.47;2.28;;;16.40;59.60;;;;;;4975985;28;20081;-25
2021/12/22 02:39:36;;;;;;;2.28;2.10;;;16.40;59.60;;;;;;4977808;28;20047;-28
2021/12/22 02:42:02;;;;;;;2.70;2.50;;;16.40;59.60;;;;;;4977063;28;20043;-24
2021/12/22 02:44:27;;;;;;;2.05;1.95;;;16.40;59.60;;;;;;4977868;28;20129;-28
2021/12/22 02:46:53;;;;;;;2.60;2.50;;;16.40;59.60;;;;;;4975269;28;20054;-27
2021/12/22 02:49:18;;;;;;;2.28;2.17;;;16.40;59.60;;;;;;4976119;28;20054;-30
2021/12/22 02:51:44;;;;;;;2.15;2.05;;;16.40;59.50;;;;;;4976890;28;20039;-27
2021/12/22 02:54:19;;;;;;;2.35;2.25;;;16.40;59.50;;;;;;4976787;28;20728;-28
2021/12/22 03:02:17;;;;;;;2.30;2.13;;;16.40;59.50;;;;;;4969083;28;20554;-24
2021/12/22 03:04:50;;;;;;;2.10;2.00;;;16.40;59.50;;;;;;4974320;28;20047;-27
2021/12/22 03:07:17;;;;;;;2.22;2.00;;;16.40;59.50;;;;;;4984700;28;20171;-27
2021/12/22 03:09:43;;;;;;;2.25;2.15;;;16.40;59.50;;;;;;4975787;28;20522;-26
2021/12/22 03:12:11;;;;;;;2.60;2.40;;;16.40;59.50;;;;;;4972618;28;20074;-23
2021/12/22 03:14:37;;;;;;;2.20;2.10;;;16.40;59.40;;;;;;4975272;28;20112;-29
2021/12/22 03:17:03;;;;;;;2.10;2.00;;;16.40;59.40;;;;;;4967422;28;20046;-25
2021/12/22 03:19:30;;;;;;;2.03;1.92;;;16.40;59.50;;;;;;4973137;28;20047;-23
2021/12/22 03:22:04;;;;;;;1.98;1.88;;;16.40;59.50;;;;;;4974798;28;20871;-29
2021/12/22 03:24:32;;;;;;;2.28;2.17;;;16.40;59.50;;;;;;4976752;28;20046;-25
2021/12/22 03:27:03;;;;;;;2.30;2.20;;;16.30;59.40;;;;;;4974504;28;20054;-33
2021/12/22 03:29:29;;;;;;;2.28;2.17;;;16.30;59.50;;;;;;4973290;28;20050;-27
2021/12/22 03:31:55;;;;;;;2.30;2.20;;;16.30;59.50;;;;;;4974990;28;20050;-28
2021/12/22 03:34:20;;;;;;;2.53;2.33;;;16.30;59.50;;;;;;4974139;28;20047;-29
2021/12/22 03:36:46;;;;;;;2.10;1.90;;;16.40;59.50;;;;;;4978843;28;20098;-32
2021/12/22 03:39:13;;;;;;;2.45;2.25;;;16.40;59.50;;;;;;4971593;28;20131;-28
2021/12/22 03:41:39;;;;;;;2.00;1.90;;;16.40;59.50;;;;;;4975982;28;20039;-26
2021/12/22 03:44:05;;;;;;;2.00;1.88;;;16.40;59.50;;;;;;4976099;28;20051;-31
2021/12/22 03:46:30;;;;;;;2.20;2.10;;;16.40;59.60;;;;;;4974924;28;20057;-26
2021/12/22 03:48:58;;;;;;;1.70;1.60;;;16.40;59.60;;;;;;4971274;28;20046;-26
2021/12/22 03:51:24;;;;;;;1.90;1.80;;;16.30;59.60;;;;;;4974506;28;20104;-29
2021/12/22 03:53:50;;;;;;;1.88;1.77;;;16.30;59.60;;;;;;4975183;28;20047;-27
2021/12/22 03:56:15;;;;;;;1.85;1.75;;;16.30;59.60;;;;;;4973389;28;20065;-30
2021/12/22 03:58:41;;;;;;;2.28;2.08;;;16.30;59.60;;;;;;4974691;28;20046;-26
2021/12/22 04:01:06;;;;;;;2.20;2.10;;;16.30;59.60;;;;;;4974989;28;20046;-31
2021/12/22 04:03:34;;;;;;;2.10;2.00;;;16.30;59.70;;;;;;4974215;28;20058;-30
2021/12/22 04:06:00;;;;;;;2.40;2.20;;;16.30;59.60;;;;;;4974716;28;20072;-32
2021/12/22 04:08:26;;;;;;;1.80;1.70;;;16.30;59.60;;;;;;4972004;28;20042;-27
2021/12/22 04:10:52;;;;;;;1.80;1.70;;;16.30;59.60;;;;;;4973024;28;20053;-29
2021/12/22 04:13:19;;;;;;;1.90;1.80;;;16.30;59.60;;;;;;4975143;28;20050;-31
2021/12/22 04:15:45;;;;;;;2.17;2.08;;;16.30;59.50;;;;;;4974529;28;20047;-30
2021/12/22 04:18:11;;;;;;;1.98;1.88;;;16.30;59.60;;;;;;4972453;28;20149;-26
2021/12/22 04:20:37;;;;;;;1.85;1.75;;;16.30;59.60;;;;;;4972447;28;20121;-30
2021/12/22 04:23:02;;;;;;;2.45;2.00;;;16.30;59.60;;;;;;4971900;28;20082;-28
2021/12/22 04:25:29;;;;;;;2.13;2.00;;;16.30;59.50;;;;;;4972566;28;20076;-26
2021/12/22 04:27:56;;;;;;;1.67;1.58;;;16.20;59.50;;;;;;4972190;28;20051;-23
2021/12/22 04:30:23;;;;;;;1.63;1.52;;;16.20;59.50;;;;;;4973500;28;20055;-28
2021/12/22 04:32:49;;;;;;;2.00;1.90;;;16.30;59.50;;;;;;4970842;28;20059;-23
2021/12/22 04:35:15;;;;;;;1.98;1.88;;;16.30;59.60;;;;;;4965888;28;20065;-34
2021/12/22 04:37:40;;;;;;;1.88;1.77;;;16.20;59.60;;;;;;4973296;28;20058;-28
2021/12/22 04:40:06;;;;;;;1.73;1.63;;;16.20;59.50;;;;;;4970487;28;20042;-25
2021/12/22 04:42:32;;;;;;;1.70;1.60;;;16.20;59.50;;;;;;4972305;28;20043;-29
2021/12/22 04:44:59;;;;;;;1.70;1.60;;;16.20;59.50;;;;;;4972936;28;20050;-31
2021/12/22 04:47:24;;;;;;;1.90;1.80;;;16.30;59.50;;;;;;4966805;28;20039;-30
2021/12/22 04:49:50;;;;;;;1.90;1.80;;;16.20;59.50;;;;;;4966411;28;20416;-24
2021/12/22 04:52:19;;;;;;;1.70;1.60;;;16.20;59.40;;;;;;4967543;28;20410;-29
2021/12/22 04:55:01;;;;;;;1.80;1.70;;;16.20;59.40;;;;;;4970669;28;20035;-25
2021/12/22 04:57:27;;;;;;;2.05;1.95;;;16.20;59.50;;;;;;4963592;28;20122;-32
2021/12/22 04:59:52;;;;;;;1.88;1.77;;;16.20;59.40;;;;;;4973492;28;20660;-28
2021/12/22 05:02:18;;;;;;;2.00;1.90;;;16.20;59.50;;;;;;4967596;28;20101;-24
2021/12/22 05:04:44;;;;;;;1.92;1.83;;;16.20;59.40;;;;;;4969764;28;20042;-26
2021/12/22 05:07:09;;;;;;;1.92;1.83;;;16.20;59.40;;;;;;4971885;28;20046;-28
2021/12/22 05:09:35;;;;;;;1.95;1.85;;;16.20;59.40;;;;;;4970856;28;20102;-30
2021/12/22 05:12:00;;;;;;;2.20;2.10;;;16.20;59.40;;;;;;4971247;28;20049;-27
2021/12/22 05:14:26;;;;;;;1.98;1.88;;;16.20;59.40;;;;;;4971848;28;20042;-27
2021/12/22 05:16:58;;;;;;;1.98;1.88;;;16.10;59.40;;;;;;4973812;28;20043;-26
2021/12/22 05:19:23;;;;;;;2.10;2.00;;;16.20;59.30;;;;;;4973094;28;20078;-28
2021/12/22 05:21:49;;;;;;;2.00;1.90;;;16.10;59.30;;;;;;4973790;28;20038;-29
2021/12/22 05:24:15;;;;;;;2.10;2.00;;;16.10;59.40;;;;;;4973723;28;20059;-25
2021/12/22 05:26:40;;;;;;;1.90;1.80;;;16.20;59.40;;;;;;4973863;28;20094;-25
2021/12/22 05:29:06;;;;;;;1.85;1.75;;;16.10;59.40;;;;;;4973653;28;20560;-28
2021/12/22 05:31:32;;;;;;;1.75;1.65;;;16.10;59.30;;;;;;4974662;28;20047;-24
2021/12/22 05:33:57;;;;;;;2.30;2.15;;;16.10;59.30;;;;;;4975413;28;20463;-25
2021/12/22 05:36:23;;;;;;;1.75;1.65;;;16.10;59.40;;;;;;4975955;28;20464;-29
2021/12/22 05:38:49;;;;;;;1.83;1.73;;;16.10;59.30;;;;;;4976371;28;20061;-26
2021/12/22 05:41:14;;;;;;;1.67;1.58;;;16.10;59.30;;;;;;4977600;28;20462;-28
2021/12/22 05:43:40;;;;;;;1.40;1.40;;;16.10;59.30;;;;;;4978136;28;20058;-25
2021/12/22 05:46:05;;;;;;;1.88;1.77;;;16.10;59.30;;;;;;4977713;28;20066;-31
2021/12/22 05:48:31;;;;;;;1.83;1.73;;;16.10;59.30;;;;;;4974892;28;20058;-28
2021/12/22 05:51:00;;;;;;;2.08;1.90;;;16.10;59.30;;;;;;4977785;28;20054;-28
2021/12/22 05:53:26;;;;;;;1.70;1.60;;;16.10;59.20;;;;;;4975531;28;20110;-23
2021/12/22 05:55:52;;;;;;;1.60;1.50;;;16.10;59.20;;;;;;4976520;28;20481;-31
2021/12/22 05:58:18;;;;;;;1.50;1.40;;;16.10;59.20;;;;;;4977583;28;20081;-24
2021/12/22 06:00:43;;;;;;;1.90;1.80;;;16.10;59.20;;;;;;4977013;28;20053;-29
2021/12/22 06:03:10;;;;;;;1.60;1.50;;;16.10;59.20;;;;;;4975144;28;20082;-31
2021/12/22 06:05:36;;;;;;;1.73;1.63;;;16.10;59.20;;;;;;4977021;28;20463;-25
2021/12/22 06:08:03;;;;;;;1.80;1.70;;;16.10;59.10;;;;;;4976195;28;20058;-26
2021/12/22 06:10:29;;;;;;;1.70;1.60;;;16.10;59.10;;;;;;4978407;28;20081;-24
2021/12/22 06:12:54;;;;;;;1.80;1.70;;;16.10;59.10;;;;;;4976666;28;20058;-28
2021/12/22 06:15:20;;;;;;;1.75;1.65;;;16.10;59.10;;;;;;4975819;28;20074;-32
2021/12/22 06:17:48;;;;;;;2.15;2.05;;;16.10;59.10;;;;;;4976724;28;20117;-28
2021/12/22 06:20:14;;;;;;;1.83;1.73;;;16.10;59.10;;;;;;4976700;28;20039;-26
2021/12/22 06:22:39;;;;;;;1.73;1.60;;;16.10;59.00;;;;;;4976486;28;20492;-30
2021/12/22 06:25:05;;;;;;;1.83;1.73;;;16.10;59.10;;;;;;4976754;28;20615;-26
2021/12/22 06:27:31;;;;;;;1.92;1.83;;;16.00;59.00;;;;;;4977678;28;20045;-25
2021/12/22 06:29:56;;;;;;;1.90;1.80;;;16.00;59.10;;;;;;4977796;28;20078;-27
2021/12/22 06:32:22;;;;;;;1.85;1.75;;;16.00;59.10;;;;;;4976916;28;20051;-26
2021/12/22 06:34:48;;;;;;;1.83;1.73;;;16.00;59.10;;;;;;4974669;28;20047;-27
2021/12/22 06:37:13;;;;;;;1.98;1.88;;;16.00;59.00;;;;;;4975717;28;20062;-27
2021/12/22 06:39:39;;;;;;;2.00;1.90;;;16.00;59.00;;;;;;4978040;28;20061;-29
2021/12/22 06:42:07;;;;;;;1.90;1.80;;;16.00;59.10;;;;;;4977008;28;20050;-30
2021/12/22 06:44:33;;;;;;;1.77;1.70;;;16.00;59.00;;;;;;4976301;28;20162;-23
2021/12/22 06:46:58;;;;;;;1.73;1.63;;;16.00;59.10;;;;;;4975279;28;20661;-26
2021/12/22 06:49:24;;;;;;;1.80;1.70;;;16.00;59.10;;;;;;4976982;28;20054;-27
2021/12/22 06:51:51;;;;;;;1.75;1.65;;;16.00;59.10;;;;;;4977972;28;20038;-26
2021/12/22 06:54:16;;;;;;;1.45;1.42;;;16.00;59.00;;;;;;4975574;28;20075;-31
2021/12/22 06:56:42;;;;;;;1.90;1.80;;;16.00;59.00;;;;;;4976431;28;20058;-26
2021/12/22 06:59:07;;;;;;;1.73;1.63;;;16.00;59.10;;;;;;4974616;28;20053;-23
2021/12/22 07:01:35;;;;;;;1.70;1.60;;;16.00;59.10;;;;;;4975932;28;20486;-28
2021/12/22 07:04:00;;;;;;;1.70;1.60;;;16.00;59.00;;;;;;4976569;28;20046;-26
2021/12/22 07:06:26;;;;;;;1.98;1.88;;;16.00;59.00;;;;;;4976834;28;20620;-23
2021/12/22 07:08:52;;;;;;;2.13;2.03;;;16.00;59.00;;;;;;4977355;28;20058;-32
2021/12/22 07:11:17;;;;;;;2.00;1.90;;;16.00;59.00;;;;;;4974995;28;20039;-29
2021/12/22 07:13:43;;;;;;;1.70;1.60;;;16.00;59.00;;;;;;4977062;28;20047;-27
2021/12/22 07:16:09;;;;;;;1.80;1.70;;;15.90;59.00;;;;;;4975109;28;20058;-30
2021/12/22 07:18:34;;;;;;;1.80;1.70;;;16.00;59.00;;;;;;4975713;28;20551;-26
2021/12/22 07:21:01;;;;;;;1.60;1.50;;;16.00;59.10;;;;;;4975525;28;20043;-25
2021/12/22 07:23:27;;;;;;;1.55;1.45;;;16.00;59.10;;;;;;4977411;28;20055;-24
2021/12/22 07:25:52;;;;;;;1.70;1.60;;;16.00;59.00;;;;;;4975038;28;20070;-27
2021/12/22 07:28:18;;;;;;;1.85;1.75;;;15.90;59.10;;;;;;4974863;28;20054;-29
2021/12/22 07:30:43;;;;;;;1.80;1.70;;;15.90;59.10;;;;;;4976654;28;20049;-25
2021/12/22 07:33:09;;;;;;;1.70;1.60;;;15.90;59.00;;;;;;4974412;28;20630;-25
2021/12/22 07:35:57;;;;;;;1.60;1.50;;;15.90;58.90;;;;;;4976653;28;20050;-29
2021/12/22 07:39:01;;;;;;;1.58;1.48;;;15.90;58.90;;;;;;4977311;28;20046;-32
2021/12/22 07:41:27;;;;;;;1.90;1.80;;;15.90;58.90;;;;;;5003889;28;20080;-31
2021/12/22 07:43:53;;;;;;;2.10;2.00;;;15.90;58.90;;;;;;4980947;28;20050;-25
2021/12/22 07:46:18;;;;;;;1.80;1.70;;;15.90;59.00;;;;;;4971340;28;20046;-28
2021/12/22 07:48:44;;;;;;;1.63;1.52;;;15.90;59.00;;;;;;4972455;28;20484;-33
2021/12/22 07:51:10;;;;;;;1.67;1.58;;;15.90;59.00;;;;;;4969868;28;20046;-31
2021/12/22 07:53:35;;;;;;;1.40;1.40;;;15.90;59.00;;;;;;4974257;28;20046;-26
2021/12/22 07:56:01;;;;;;;1.70;1.60;;;15.90;59.00;;;;;;4971697;28;20131;-30
2021/12/22 07:58:27;;;;;;;1.88;1.77;;;15.90;59.00;;;;;;4972509;28;20054;-26
2021/12/22 08:00:53;;;;;;;1.65;1.55;;;15.90;59.00;;;;;;4968716;28;20431;-29
2021/12/22 08:03:19;;;;;;;1.65;1.55;;;15.90;59.00;;;;;;4970810;28;20067;-26
2021/12/22 08:05:44;;;;;;;1.70;1.60;;;15.90;59.00;;;;;;4971431;28;20050;-24
2021/12/22 08:08:10;;;;;;;1.85;1.75;;;15.90;58.80;;;;;;4974023;28;20422;-32
2021/12/22 08:10:36;;;;;;;1.80;1.70;;;15.90;58.70;;;;;;4975529;28;20049;-30
2021/12/22 08:13:01;;;;;;;1.70;1.60;;;15.90;58.80;;;;;;4976249;28;20086;-29
2021/12/22 08:15:27;;;;;;;1.98;1.88;;;15.90;58.80;;;;;;4970644;28;20046;-25
2021/12/22 08:17:53;;;;;;;3.08;2.88;;;15.90;58.90;;;;;;4972855;28;20050;-26
2021/12/22 08:20:19;;;;;;;3.83;3.38;;;15.90;58.90;;;;;;4974962;28;20038;-29
2021/12/22 08:22:45;;;;;;;4.28;3.83;;;15.90;58.90;;;;;;4971689;28;20043;-29
2021/12/22 08:25:11;;;;;;;4.53;3.72;;;15.90;59.00;;;;;;4972076;28;20053;-25
2021/12/22 08:27:37;;;;;;;4.28;3.90;;;15.90;59.00;;;;;;4975648;28;20054;-33
2021/12/22 08:30:03;;;;;;;4.28;3.88;;;15.90;58.90;;;;;;4963672;28;20042;-27
2021/12/22 08:32:29;;;;;;;4.50;4.18;;;15.90;58.80;;;;;;4971556;28;20043;-28
2021/12/22 08:34:56;;;;;;;3.92;3.53;;;15.90;59.00;;;;;;4971899;28;20105;-30
2021/12/22 08:40:07;;;;;;;;;;;15.90;59.30;;;;;;4972719;28;20049;-27
2021/12/22 08:42:32;;;;;;;4.68;4.18;;;15.90;59.60;;;;;;4972624;28;19956;-26
2021/12/22 08:44:58;;;;;;;3.85;3.50;;;15.90;59.60;;;;;;4973079;28;20079;-32
2021/12/22 08:47:24;;;;;;;3.60;3.30;;;16.00;59.40;;;;;;4972350;28;20050;-29
2021/12/22 08:49:49;;;;;;;3.92;3.63;;;16.00;60.60;;;;;;4972855;28;20464;-28
2021/12/22 08:52:15;;;;;;;3.10;2.90;;;16.00;60.60;;;;;;4973181;28;20045;-27
2021/12/22 08:54:40;;;;;;;4.10;3.63;;;16.00;60.80;;;;;;4972345;28;20126;-29
2021/12/22 08:57:06;;;;;;;3.28;3.08;;;16.00;61.40;;;;;;4972296;28;20582;-29
2021/12/22 08:59:32;;;;;;;3.10;2.85;;;16.10;61.10;;;;;;4972224;28;20053;-32
2021/12/22 09:01:57;;;;;;;4.47;3.00;;;16.10;60.50;;;;;;4972003;28;20066;-30
2021/12/22 09:04:23;;;;;;;3.50;2.92;;;16.00;60.20;;;;;;4970180;28;20096;-25
2021/12/22 09:06:50;;;;;;;3.53;3.33;;;16.00;60.70;;;;;;4971057;28;20596;-25
2021/12/22 09:09:15;;;;;;;3.20;3.00;;;16.00;60.50;;;;;;4974279;28;20057;-29
2021/12/22 09:11:41;;;;;;;2.80;2.60;;;16.00;60.20;;;;;;4974478;28;20566;-30
2021/12/22 09:14:07;;;;;;;3.28;2.70;;;16.10;60.30;;;;;;4965715;28;20050;-32
2021/12/22 09:16:34;;;;;;;2.45;2.35;;;16.10;60.60;;;;;;4973387;28;20042;-29
2021/12/22 09:19:00;;;;;;;3.60;3.30;;;16.10;61.10;;;;;;4975201;28;20096;-24
2021/12/22 09:21:25;;;;;;;3.30;3.10;;;16.10;60.90;;;;;;4974839;28;20050;-29
2021/12/22 09:23:51;;;;;;;3.65;3.30;;;16.10;61.10;;;;;;4975061;28;20055;-28
2021/12/22 09:26:16;;;;;;;7.53;3.15;;;16.10;60.70;;;;;;4973844;28;20046;-28
2021/12/22 09:28:42;;;;;;;3.10;2.90;;;16.10;60.10;;;;;;4977700;28;20054;-27
2021/12/22 09:31:09;;;;;;;3.17;2.97;;;16.20;60.50;;;;;;4974234;28;20050;-27
2021/12/22 09:33:35;;;;;;;3.53;2.97;;;16.10;60.10;;;;;;4975307;28;20697;-27
2021/12/22 09:36:01;;;;;;;3.28;3.08;;;16.20;60.50;;;;;;4974283;28;20055;-30
2021/12/22 09:38:27;;;;;;;3.60;3.33;;;16.20;60.60;;;;;;4974383;28;20058;-24
2021/12/22 09:40:52;;;;;;;4.55;3.17;;;16.10;61.30;;;;;;4971582;28;20807;-24
2021/12/22 09:43:18;;;;;;;3.15;2.95;;;16.10;60.90;;;;;;4977370;28;20066;-30
2021/12/22 09:45:48;;;;;;;3.13;2.92;;;16.10;61.20;;;;;;4974409;28;20058;-27
2021/12/22 09:53:16;;;;;;;15.30;9.65;;;16.10;61.50;;;;;;4976659;28;20053;-27
2021/12/22 09:55:41;;;;;;;11.63;8.95;;;16.20;61.20;;;;;;4974600;28;20463;-29
2021/12/22 09:58:09;;;;;;;11.32;8.75;;;16.10;60.90;;;;;;4975988;28;20094;-28
2021/12/22 10:00:35;;;;;;;16.60;10.80;;;16.20;61.10;;;;;;4975784;28;20154;-25
2021/12/22 10:03:02;;;;;;;13.10;9.68;;;16.20;61.10;;;;;;4976396;28;20077;-30
2021/12/22 10:05:27;;;;;;;17.10;11.43;;;16.20;60.80;;;;;;4973315;28;20066;-31
2021/12/22 10:08:14;;;;;;;16.65;10.43;;;16.20;60.90;;;;;;4976431;28;20038;-26
2021/12/22 10:10:47;;;;;;;14.25;10.30;;;16.10;60.60;;;;;;4974152;28;20101;-32
2021/12/22 10:13:21;;;;;;;13.27;10.88;;;16.10;60.80;;;;;;4968719;28;20053;-25
2021/12/22 10:15:48;;;;;;;13.80;10.32;;;16.20;61.30;;;;;;4974708;28;20112;-26
2021/12/22 10:18:18;;;;;;;10.90;9.57;;;16.20;61.40;;;;;;4975847;28;20070;-28
2021/12/22 10:20:45;;;;;;;13.15;9.48;;;16.20;61.40;;;;;;4974457;28;20062;-28
2021/12/22 10:23:44;;;;;;;10.50;8.20;;;16.20;61.60;;;;;;4975011;28;21410;-25
2021/12/22 10:26:10;;;;;;;11.05;9.25;;;16.20;61.50;;;;;;4960932;28;20068;-28
2021/12/22 10:28:50;;;;;;;11.23;8.52;;;16.20;61.60;;;;;;4976953;28;20138;-29
2021/12/22 10:31:16;;;;;;;10.52;8.60;;;16.20;61.50;;;;;;4981621;28;20447;-23
2021/12/22 10:33:42;;;;;;;9.30;8.20;;;16.20;61.30;;;;;;4977306;28;20171;-31
2021/12/22 10:36:12;;;;;;;10.52;8.15;;;16.20;61.00;;;;;;4978178;28;20123;-31
2021/12/22 10:38:38;;;;;;;7.70;7.00;;;16.20;61.00;;;;;;4975757;28;20055;-28
2021/12/22 10:41:06;;;;;;;8.77;7.65;;;16.30;60.90;;;;;;4979811;28;20050;-30
2021/12/22 10:43:33;;;;;;;8.88;7.97;;;16.20;60.90;;;;;;4981378;28;20663;-28
2021/12/22 10:46:01;;;;;;;10.55;8.15;;;16.20;61.10;;;;;;4976752;28;20496;-29
2021/12/22 10:51:20;;;;;;;7.47;6.60;;;16.20;60.90;;;;;;4977544;28;20100;-26
2021/12/22 10:53:49;;;;;;;9.07;7.80;;;16.20;61.00;;;;;;4977412;28;20078;-29
2021/12/22 10:56:28;;;;;;;7.63;6.90;;;16.20;61.20;;;;;;4979682;28;20061;-31
2021/12/22 10:59:15;;;;;;;8.68;7.55;;;16.20;60.90;;;;;;4978289;28;20046;-28
2021/12/22 11:01:53;;;;;;;8.43;7.32;;;16.20;60.70;;;;;;4977736;28;20043;-28
2021/12/22 11:04:23;;;;;;;8.18;7.00;;;16.30;60.70;;;;;;4977633;28;20078;-24
2021/12/22 11:06:51;;;;;;;6.80;6.20;;;16.30;60.50;;;;;;4977599;28;20434;-27
2021/12/22 11:09:17;;;;;;;7.50;6.75;;;16.30;60.50;;;;;;4975849;28;20130;-32
2021/12/22 11:11:43;;;;;;;7.57;6.88;;;16.30;60.50;;;;;;4977412;28;20070;-26
2021/12/22 11:14:10;;;;;;;7.05;6.20;;;16.30;60.60;;;;;;4973083;28;20558;-24
2021/12/22 11:17:02;;;;;;;8.15;7.30;;;16.40;61.10;;;;;;4976755;28;20054;-28
2021/12/22 11:19:32;;;;;;;6.78;6.18;;;16.40;61.10;;;;;;4957556;28;20126;-29
2021/12/22 11:22:15;;;;;;;6.47;6.00;;;16.40;61.20;;;;;;4975194;28;20053;-25
2021/12/22 11:24:48;;;;;;;7.00;5.78;;;16.40;61.40;;;;;;4977607;28;20057;-24
2021/12/22 11:27:17;;;;;;;7.63;6.18;;;16.40;61.30;;;;;;4976513;28;20046;-30
2021/12/22 11:29:46;;;;;;;6.72;6.00;;;16.40;61.90;;;;;;4976168;28;20122;-28
2021/12/22 11:32:17;;;;;;;6.30;5.80;;;16.40;61.60;;;;;;4977309;28;20448;-23
2021/12/22 11:34:47;;;;;;;5.50;5.00;;;16.50;61.50;;;;;;4974555;28;20043;-27
2021/12/22 11:37:12;;;;;;;5.63;5.13;;;16.40;61.40;;;;;;4975338;28;20051;-32
2021/12/22 11:39:38;;;;;;;5.85;5.28;;;16.40;61.90;;;;;;4973852;28;20156;-31
2021/12/22 11:42:07;;;;;;;6.32;5.72;;;16.40;61.60;;;;;;4976207;28;20064;-23
2021/12/22 11:44:33;;;;;;;6.05;5.55;;;16.40;61.80;;;;;;4628992;28;10000311;-27
2021/12/22 11:47:07;;;;;;;5.60;5.20;;;16.40;60.90;;;;;;4973748;28;20488;-26
2021/12/22 11:49:34;;;;;;;5.20;4.80;;;16.40;60.40;;;;;;4982901;28;20142;-30
2021/12/22 11:52:01;;;;;;;6.20;5.70;;;16.40;60.00;;;;;;4967828;28;20057;-32
2021/12/22 11:54:28;;;;;;;5.95;5.45;;;16.40;60.30;;;;;;4968823;28;20045;-25
2021/12/22 11:56:59;;;;;;;5.40;5.00;;;16.40;60.20;;;;;;4971737;28;20572;-26
2021/12/22 11:59:34;;;;;;;5.88;5.38;;;16.40;61.00;;;;;;4970952;28;20083;-30
2021/12/22 12:02:18;;;;;;;;;;;16.40;61.40;;;;;;4970500;28;20091;-26
2021/12/22 12:04:43;;;;;;;5.05;4.70;;;16.40;61.70;;;;;;4969018;28;19917;-29
2021/12/22 12:07:09;;;;;;;6.22;5.53;;;16.50;61.90;;;;;;4971065;28;20113;-25
2021/12/22 12:09:35;;;;;;;5.30;4.90;;;16.40;61.50;;;;;;4970222;28;20051;-24
2021/12/22 12:12:04;;;;;;;4.57;4.25;;;16.40;61.70;;;;;;4969679;28;20070;-26
2021/12/22 12:23:26;;;;;;;5.05;4.75;;;16.40;61.90;;;;;;4961595;28;20077;-25
2021/12/22 12:25:52;;;;;;;5.05;4.55;;;16.40;62.10;;;;;;4972491;28;20054;-32
2021/12/22 12:28:18;;;;;;;5.10;4.70;;;16.50;62.40;;;;;;4971485;28;20057;-24
2021/12/22 12:30:45;;;;;;;5.50;5.05;;;16.50;62.80;;;;;;4972782;28;20100;-26
2021/12/22 12:33:44;;;;;;;4.97;4.60;;;16.50;62.40;;;;;;4972112;28;20038;-31
2021/12/22 12:36:13;;;;;;;4.90;4.57;;;16.50;62.30;;;;;;4970012;28;20047;-28
2021/12/22 12:38:52;;;;;;;4.70;4.40;;;16.50;62.50;;;;;;4970268;28;20085;-27
2021/12/22 12:41:36;;;;;;;4.70;4.30;;;16.50;62.40;;;;;;4980256;28;20051;-29
2021/12/22 12:44:12;;;;;;;4.75;4.45;;;16.50;62.40;;;;;;4965100;28;20051;-25
2021/12/22 12:46:42;;;;;;;5.43;4.93;;;16.50;62.50;;;;;;4973442;28;20062;-27
2021/12/22 12:49:08;;;;;;;4.72;4.38;;;16.50;62.80;;;;;;4970831;28;20854;-23
2021/12/22 12:51:36;;;;;;;5.00;4.60;;;16.50;62.80;;;;;;4969437;28;20061;-26
2021/12/22 12:54:09;;;;;;;5.03;4.72;;;16.50;62.80;;;;;;4970065;28;20046;-27
2021/12/22 12:56:46;;;;;;;4.72;4.43;;;16.50;62.80;;;;;;4970366;28;20053;-27
2021/12/22 12:59:25;;;;;;;5.55;5.15;;;16.50;63.00;;;;;;4975995;28;20070;-31
2021/12/22 13:01:50;;;;;;;5.25;4.85;;;16.60;63.20;;;;;;4970841;28;20047;-30
2021/12/22 13:04:20;;;;;;;6.30;4.65;;;16.60;63.00;;;;;;4970113;28;20118;-27
2021/12/22 13:06:46;;;;;;;5.68;5.28;;;16.60;63.20;;;;;;4967808;28;20222;-26
2021/12/22 13:09:22;;;;;;;5.25;4.75;;;16.60;63.10;;;;;;4969131;28;20051;-25
2021/12/22 13:11:58;;;;;;;5.38;4.85;;;16.60;63.20;;;;;;4969787;28;20047;-30
2021/12/22 13:17:15;;;;;;;4.50;4.25;;;16.60;63.40;;;;;;4968466;28;20061;-28
2021/12/22 13:19:44;;;;;;;5.40;5.00;;;16.70;63.20;;;;;;4965475;28;20046;-25
2021/12/22 13:22:23;;;;;;;5.32;4.85;;;16.60;63.30;;;;;;4962321;28;20137;-27
2021/12/22 13:24:48;;;;;;;4.90;4.60;;;16.70;63.30;;;;;;4968999;28;20137;-26